sensor_id;sensor_type;location;lat;lon;timestamp;P1;durP1;ratioP1;P2;durP2;ratioP2
42944;SDS011;28584;42.636;23.294;2023-12-04T00:00:18;7.17;;;4.20;;
42944;SDS011;28584;42.636;23.294;2023-12-04T00:02:44;5.83;;;3.90;;
42944;SDS011;28584;42.636;23.294;2023-12-04T00:05:09;4.00;;;3.60;;
42944;SDS011;28584;42.636;23.294;2023-12-04T00:07:34;6.83;;;4.13;;
42944;SDS011;28584;42.636;23.294;2023-12-04T00:09:59;5.70;;;4.10;;
42944;SDS011;28584;42.636;23.294;2023-12-04T00:12:24;6.20;;;4.20;;
42944;SDS011;28584;42.636;23.294;2023-12-04T00:14:50;5.23;;;3.80;;
42944;SDS011;28584;42.636;23.294;2023-12-04T00:17:15;4.80;;;3.83;;
42944;SDS011;28584;42.636;23.294;2023-12-04T00:19:40;6.10;;;4.37;;
42944;SDS011;28584;42.636;23.294;2023-12-04T00:22:06;5.00;;;3.77;;
42944;SDS011;28584;42.636;23.294;2023-12-04T00:24:31;6.40;;;4.57;;
42944;SDS011;28584;42.636;23.294;2023-12-04T00:26:56;5.47;;;4.10;;
42944;SDS011;28584;42.636;23.294;2023-12-04T00:29:21;8.10;;;4.30;;
42944;SDS011;28584;42.636;23.294;2023-12-04T00:31:46;5.60;;;4.30;;
42944;SDS011;28584;42.636;23.294;2023-12-04T00:34:12;4.73;;;3.53;;
42944;SDS011;28584;42.636;23.294;2023-12-04T00:36:37;5.07;;;4.10;;
42944;SDS011;28584;42.636;23.294;2023-12-04T00:39:02;4.93;;;3.57;;
42944;SDS011;28584;42.636;23.294;2023-12-04T00:41:28;7.37;;;3.37;;
42944;SDS011;28584;42.636;23.294;2023-12-04T00:43:54;4.87;;;3.30;;
42944;SDS011;28584;42.636;23.294;2023-12-04T00:46:19;4.20;;;3.30;;
42944;SDS011;28584;42.636;23.294;2023-12-04T00:48:44;4.50;;;3.40;;
42944;SDS011;28584;42.636;23.294;2023-12-04T00:51:11;5.37;;;3.60;;
42944;SDS011;28584;42.636;23.294;2023-12-04T00:53:36;4.27;;;3.37;;
42944;SDS011;28584;42.636;23.294;2023-12-04T00:56:01;4.17;;;3.30;;
42944;SDS011;28584;42.636;23.294;2023-12-04T00:58:26;5.17;;;3.77;;
42944;SDS011;28584;42.636;23.294;2023-12-04T01:00:52;5.43;;;3.93;;
42944;SDS011;28584;42.636;23.294;2023-12-04T01:03:17;3.87;;;3.07;;
42944;SDS011;28584;42.636;23.294;2023-12-04T01:05:42;3.90;;;3.23;;
42944;SDS011;28584;42.636;23.294;2023-12-04T01:08:08;8.07;;;3.80;;
42944;SDS011;28584;42.636;23.294;2023-12-04T01:10:33;4.27;;;3.60;;
42944;SDS011;28584;42.636;23.294;2023-12-04T01:12:58;6.33;;;3.40;;
42944;SDS011;28584;42.636;23.294;2023-12-04T01:15:23;5.70;;;4.40;;
42944;SDS011;28584;42.636;23.294;2023-12-04T01:17:48;6.60;;;4.50;;
42944;SDS011;28584;42.636;23.294;2023-12-04T01:20:14;4.47;;;3.50;;
42944;SDS011;28584;42.636;23.294;2023-12-04T01:22:39;4.80;;;4.30;;
42944;SDS011;28584;42.636;23.294;2023-12-04T01:25:04;9.13;;;4.20;;
42944;SDS011;28584;42.636;23.294;2023-12-04T01:27:30;5.57;;;4.10;;
42944;SDS011;28584;42.636;23.294;2023-12-04T01:29:55;5.20;;;4.17;;
42944;SDS011;28584;42.636;23.294;2023-12-04T01:32:20;6.37;;;5.00;;
42944;SDS011;28584;42.636;23.294;2023-12-04T01:34:45;5.77;;;4.40;;
42944;SDS011;28584;42.636;23.294;2023-12-04T01:37:11;6.20;;;5.03;;
42944;SDS011;28584;42.636;23.294;2023-12-04T01:39:36;6.33;;;4.87;;
42944;SDS011;28584;42.636;23.294;2023-12-04T01:42:02;5.67;;;4.43;;
42944;SDS011;28584;42.636;23.294;2023-12-04T01:44:27;6.97;;;4.73;;
42944;SDS011;28584;42.636;23.294;2023-12-04T01:46:53;7.40;;;4.73;;
42944;SDS011;28584;42.636;23.294;2023-12-04T01:49:18;6.27;;;4.93;;
42944;SDS011;28584;42.636;23.294;2023-12-04T01:51:44;9.43;;;5.37;;
42944;SDS011;28584;42.636;23.294;2023-12-04T01:54:09;7.27;;;4.40;;
42944;SDS011;28584;42.636;23.294;2023-12-04T01:56:34;8.20;;;5.00;;
42944;SDS011;28584;42.636;23.294;2023-12-04T01:59:01;7.67;;;5.97;;
42944;SDS011;28584;42.636;23.294;2023-12-04T02:01:26;8.13;;;5.80;;
42944;SDS011;28584;42.636;23.294;2023-12-04T02:03:52;9.70;;;6.17;;
42944;SDS011;28584;42.636;23.294;2023-12-04T02:06:18;7.70;;;5.57;;
42944;SDS011;28584;42.636;23.294;2023-12-04T02:08:46;7.30;;;5.40;;
42944;SDS011;28584;42.636;23.294;2023-12-04T02:11:11;5.47;;;4.00;;
42944;SDS011;28584;42.636;23.294;2023-12-04T02:13:37;5.03;;;4.40;;
42944;SDS011;28584;42.636;23.294;2023-12-04T02:16:03;9.53;;;5.80;;
42944;SDS011;28584;42.636;23.294;2023-12-04T02:18:31;6.87;;;4.93;;
42944;SDS011;28584;42.636;23.294;2023-12-04T02:20:56;7.53;;;6.00;;
42944;SDS011;28584;42.636;23.294;2023-12-04T02:23:21;8.60;;;5.47;;
42944;SDS011;28584;42.636;23.294;2023-12-04T02:25:46;8.50;;;5.77;;
42944;SDS011;28584;42.636;23.294;2023-12-04T02:28:13;8.33;;;5.73;;
42944;SDS011;28584;42.636;23.294;2023-12-04T02:30:39;9.20;;;6.37;;
42944;SDS011;28584;42.636;23.294;2023-12-04T02:33:06;7.97;;;5.67;;
42944;SDS011;28584;42.636;23.294;2023-12-04T02:35:32;5.63;;;4.70;;
42944;SDS011;28584;42.636;23.294;2023-12-04T02:37:58;5.80;;;4.93;;
42944;SDS011;28584;42.636;23.294;2023-12-04T02:40:24;6.27;;;4.17;;
42944;SDS011;28584;42.636;23.294;2023-12-04T02:42:49;5.33;;;4.17;;
42944;SDS011;28584;42.636;23.294;2023-12-04T02:45:14;4.47;;;3.60;;
42944;SDS011;28584;42.636;23.294;2023-12-04T02:47:40;5.37;;;3.80;;
42944;SDS011;28584;42.636;23.294;2023-12-04T02:50:05;4.83;;;3.90;;
42944;SDS011;28584;42.636;23.294;2023-12-04T02:52:30;4.37;;;3.67;;
42944;SDS011;28584;42.636;23.294;2023-12-04T02:54:56;6.80;;;4.70;;
42944;SDS011;28584;42.636;23.294;2023-12-04T02:57:21;5.87;;;3.57;;
42944;SDS011;28584;42.636;23.294;2023-12-04T02:59:46;5.67;;;4.50;;
42944;SDS011;28584;42.636;23.294;2023-12-04T03:02:12;6.00;;;4.33;;
42944;SDS011;28584;42.636;23.294;2023-12-04T03:04:37;6.07;;;4.67;;
42944;SDS011;28584;42.636;23.294;2023-12-04T03:07:02;6.00;;;4.57;;
42944;SDS011;28584;42.636;23.294;2023-12-04T03:09:27;7.83;;;4.87;;
42944;SDS011;28584;42.636;23.294;2023-12-04T03:11:53;6.47;;;5.00;;
42944;SDS011;28584;42.636;23.294;2023-12-04T03:14:18;8.73;;;5.33;;
42944;SDS011;28584;42.636;23.294;2023-12-04T03:16:44;6.27;;;4.37;;
42944;SDS011;28584;42.636;23.294;2023-12-04T03:19:09;4.87;;;3.77;;
42944;SDS011;28584;42.636;23.294;2023-12-04T03:21:34;7.87;;;4.63;;
42944;SDS011;28584;42.636;23.294;2023-12-04T03:23:59;6.03;;;4.37;;
42944;SDS011;28584;42.636;23.294;2023-12-04T03:26:25;4.60;;;3.77;;
42944;SDS011;28584;42.636;23.294;2023-12-04T03:28:50;6.43;;;4.17;;
42944;SDS011;28584;42.636;23.294;2023-12-04T03:31:15;5.83;;;3.97;;
42944;SDS011;28584;42.636;23.294;2023-12-04T03:33:40;7.70;;;4.97;;
42944;SDS011;28584;42.636;23.294;2023-12-04T03:36:06;5.20;;;4.67;;
42944;SDS011;28584;42.636;23.294;2023-12-04T03:38:31;7.60;;;5.53;;
42944;SDS011;28584;42.636;23.294;2023-12-04T03:40:56;8.17;;;5.50;;
42944;SDS011;28584;42.636;23.294;2023-12-04T03:43:22;5.83;;;4.63;;
42944;SDS011;28584;42.636;23.294;2023-12-04T03:45:47;6.93;;;5.13;;
42944;SDS011;28584;42.636;23.294;2023-12-04T03:48:12;5.97;;;4.83;;
42944;SDS011;28584;42.636;23.294;2023-12-04T03:50:38;8.17;;;5.70;;
42944;SDS011;28584;42.636;23.294;2023-12-04T03:53:03;6.50;;;5.50;;
42944;SDS011;28584;42.636;23.294;2023-12-04T03:55:28;7.63;;;5.13;;
42944;SDS011;28584;42.636;23.294;2023-12-04T03:57:54;6.57;;;4.97;;
42944;SDS011;28584;42.636;23.294;2023-12-04T04:00:19;10.43;;;6.43;;
42944;SDS011;28584;42.636;23.294;2023-12-04T04:02:45;7.50;;;5.37;;
42944;SDS011;28584;42.636;23.294;2023-12-04T04:05:11;7.20;;;5.47;;
42944;SDS011;28584;42.636;23.294;2023-12-04T04:07:37;7.90;;;5.30;;
42944;SDS011;28584;42.636;23.294;2023-12-04T04:10:02;8.70;;;6.20;;
42944;SDS011;28584;42.636;23.294;2023-12-04T04:12:29;7.90;;;5.93;;
42944;SDS011;28584;42.636;23.294;2023-12-04T04:14:54;6.77;;;5.60;;
42944;SDS011;28584;42.636;23.294;2023-12-04T04:17:19;7.63;;;5.70;;
42944;SDS011;28584;42.636;23.294;2023-12-04T04:19:44;9.00;;;5.93;;
42944;SDS011;28584;42.636;23.294;2023-12-04T04:22:10;6.33;;;5.20;;
42944;SDS011;28584;42.636;23.294;2023-12-04T04:24:35;8.37;;;5.73;;
42944;SDS011;28584;42.636;23.294;2023-12-04T04:27:01;7.40;;;5.60;;
42944;SDS011;28584;42.636;23.294;2023-12-04T04:29:26;5.70;;;5.10;;
42944;SDS011;28584;42.636;23.294;2023-12-04T04:31:51;5.73;;;4.27;;
42944;SDS011;28584;42.636;23.294;2023-12-04T04:34:16;5.73;;;4.53;;
42944;SDS011;28584;42.636;23.294;2023-12-04T04:36:44;6.27;;;5.20;;
42944;SDS011;28584;42.636;23.294;2023-12-04T04:39:11;7.10;;;4.30;;
42944;SDS011;28584;42.636;23.294;2023-12-04T04:41:36;7.30;;;5.80;;
42944;SDS011;28584;42.636;23.294;2023-12-04T04:44:02;7.53;;;5.43;;
42944;SDS011;28584;42.636;23.294;2023-12-04T04:46:27;9.17;;;5.87;;
42944;SDS011;28584;42.636;23.294;2023-12-04T04:48:53;7.27;;;4.90;;
42944;SDS011;28584;42.636;23.294;2023-12-04T04:51:18;6.87;;;5.07;;
42944;SDS011;28584;42.636;23.294;2023-12-04T04:53:44;6.77;;;5.60;;
42944;SDS011;28584;42.636;23.294;2023-12-04T04:56:09;8.10;;;5.93;;
42944;SDS011;28584;42.636;23.294;2023-12-04T04:58:34;9.10;;;5.73;;
42944;SDS011;28584;42.636;23.294;2023-12-04T05:01:00;6.70;;;5.07;;
42944;SDS011;28584;42.636;23.294;2023-12-04T05:03:25;6.67;;;5.33;;
42944;SDS011;28584;42.636;23.294;2023-12-04T05:05:50;6.27;;;4.80;;
42944;SDS011;28584;42.636;23.294;2023-12-04T05:08:16;6.70;;;5.07;;
42944;SDS011;28584;42.636;23.294;2023-12-04T05:10:42;6.33;;;4.90;;
42944;SDS011;28584;42.636;23.294;2023-12-04T05:13:07;5.93;;;4.13;;
42944;SDS011;28584;42.636;23.294;2023-12-04T05:15:32;6.50;;;4.60;;
42944;SDS011;28584;42.636;23.294;2023-12-04T05:17:57;5.67;;;3.97;;
42944;SDS011;28584;42.636;23.294;2023-12-04T05:20:23;4.80;;;3.93;;
42944;SDS011;28584;42.636;23.294;2023-12-04T05:22:48;5.73;;;4.40;;
42944;SDS011;28584;42.636;23.294;2023-12-04T05:25:14;5.20;;;4.33;;
42944;SDS011;28584;42.636;23.294;2023-12-04T05:27:39;5.17;;;4.00;;
42944;SDS011;28584;42.636;23.294;2023-12-04T05:30:04;5.50;;;3.83;;
42944;SDS011;28584;42.636;23.294;2023-12-04T05:32:31;4.57;;;3.33;;
42944;SDS011;28584;42.636;23.294;2023-12-04T05:34:57;6.07;;;3.33;;
42944;SDS011;28584;42.636;23.294;2023-12-04T05:37:22;6.00;;;3.97;;
42944;SDS011;28584;42.636;23.294;2023-12-04T05:39:47;4.60;;;3.27;;
42944;SDS011;28584;42.636;23.294;2023-12-04T05:42:12;4.03;;;3.60;;
42944;SDS011;28584;42.636;23.294;2023-12-04T05:44:38;5.23;;;3.87;;
42944;SDS011;28584;42.636;23.294;2023-12-04T05:47:03;5.17;;;3.23;;
42944;SDS011;28584;42.636;23.294;2023-12-04T05:49:28;4.53;;;3.00;;
42944;SDS011;28584;42.636;23.294;2023-12-04T05:51:55;4.57;;;2.77;;
42944;SDS011;28584;42.636;23.294;2023-12-04T05:54:20;4.23;;;3.00;;
42944;SDS011;28584;42.636;23.294;2023-12-04T05:56:46;3.80;;;3.37;;
42944;SDS011;28584;42.636;23.294;2023-12-04T05:59:11;5.60;;;3.33;;
42944;SDS011;28584;42.636;23.294;2023-12-04T06:01:37;4.53;;;3.70;;
42944;SDS011;28584;42.636;23.294;2023-12-04T06:04:03;6.37;;;4.67;;
42944;SDS011;28584;42.636;23.294;2023-12-04T06:06:28;11.83;;;6.73;;
42944;SDS011;28584;42.636;23.294;2023-12-04T06:08:53;8.27;;;6.07;;
42944;SDS011;28584;42.636;23.294;2023-12-04T06:11:18;11.77;;;7.50;;
42944;SDS011;28584;42.636;23.294;2023-12-04T06:13:43;12.83;;;8.20;;
42944;SDS011;28584;42.636;23.294;2023-12-04T06:16:09;11.87;;;7.67;;
42944;SDS011;28584;42.636;23.294;2023-12-04T06:18:34;11.83;;;7.27;;
42944;SDS011;28584;42.636;23.294;2023-12-04T06:20:59;9.97;;;6.87;;
42944;SDS011;28584;42.636;23.294;2023-12-04T06:23:25;7.70;;;5.50;;
42944;SDS011;28584;42.636;23.294;2023-12-04T06:25:50;7.77;;;5.90;;
42944;SDS011;28584;42.636;23.294;2023-12-04T06:28:16;6.53;;;3.90;;
42944;SDS011;28584;42.636;23.294;2023-12-04T06:30:41;5.17;;;3.93;;
42944;SDS011;28584;42.636;23.294;2023-12-04T06:33:07;4.53;;;3.60;;
42944;SDS011;28584;42.636;23.294;2023-12-04T06:35:32;3.40;;;3.10;;
42944;SDS011;28584;42.636;23.294;2023-12-04T06:37:58;4.50;;;3.13;;
42944;SDS011;28584;42.636;23.294;2023-12-04T06:40:25;5.73;;;3.90;;
42944;SDS011;28584;42.636;23.294;2023-12-04T06:42:51;4.37;;;3.90;;
42944;SDS011;28584;42.636;23.294;2023-12-04T06:45:16;5.23;;;3.40;;
42944;SDS011;28584;42.636;23.294;2023-12-04T06:47:43;4.00;;;3.53;;
42944;SDS011;28584;42.636;23.294;2023-12-04T06:50:08;4.63;;;3.47;;
42944;SDS011;28584;42.636;23.294;2023-12-04T06:52:34;4.83;;;3.70;;
42944;SDS011;28584;42.636;23.294;2023-12-04T06:54:59;5.07;;;4.10;;
42944;SDS011;28584;42.636;23.294;2023-12-04T06:57:24;6.47;;;4.60;;
42944;SDS011;28584;42.636;23.294;2023-12-04T06:59:50;5.53;;;4.10;;
42944;SDS011;28584;42.636;23.294;2023-12-04T07:02:15;6.10;;;4.23;;
42944;SDS011;28584;42.636;23.294;2023-12-04T07:04:40;7.43;;;4.60;;
42944;SDS011;28584;42.636;23.294;2023-12-04T07:07:06;7.30;;;4.00;;
42944;SDS011;28584;42.636;23.294;2023-12-04T07:09:31;7.53;;;4.60;;
42944;SDS011;28584;42.636;23.294;2023-12-04T07:11:57;6.97;;;4.77;;
42944;SDS011;28584;42.636;23.294;2023-12-04T07:14:22;7.10;;;4.20;;
42944;SDS011;28584;42.636;23.294;2023-12-04T07:16:47;6.40;;;4.40;;
42944;SDS011;28584;42.636;23.294;2023-12-04T07:19:13;5.67;;;4.00;;
42944;SDS011;28584;42.636;23.294;2023-12-04T07:21:39;5.70;;;4.07;;
42944;SDS011;28584;42.636;23.294;2023-12-04T07:24:06;6.33;;;4.43;;
42944;SDS011;28584;42.636;23.294;2023-12-04T07:26:31;5.77;;;4.13;;
42944;SDS011;28584;42.636;23.294;2023-12-04T07:28:57;5.87;;;4.73;;
42944;SDS011;28584;42.636;23.294;2023-12-04T07:31:22;6.50;;;5.07;;
42944;SDS011;28584;42.636;23.294;2023-12-04T07:33:47;12.67;;;5.47;;
42944;SDS011;28584;42.636;23.294;2023-12-04T07:36:12;6.73;;;4.63;;
42944;SDS011;28584;42.636;23.294;2023-12-04T07:38:38;7.90;;;5.47;;
42944;SDS011;28584;42.636;23.294;2023-12-04T07:41:03;6.90;;;5.13;;
42944;SDS011;28584;42.636;23.294;2023-12-04T07:43:28;6.93;;;5.27;;
42944;SDS011;28584;42.636;23.294;2023-12-04T07:45:55;7.70;;;4.67;;
42944;SDS011;28584;42.636;23.294;2023-12-04T07:48:20;7.67;;;5.50;;
42944;SDS011;28584;42.636;23.294;2023-12-04T07:50:45;9.07;;;5.80;;
42944;SDS011;28584;42.636;23.294;2023-12-04T07:53:10;9.80;;;5.93;;
42944;SDS011;28584;42.636;23.294;2023-12-04T07:55:37;6.87;;;4.80;;
42944;SDS011;28584;42.636;23.294;2023-12-04T07:58:02;8.20;;;5.27;;
42944;SDS011;28584;42.636;23.294;2023-12-04T08:00:27;8.17;;;6.13;;
42944;SDS011;28584;42.636;23.294;2023-12-04T08:02:52;8.90;;;5.20;;
42944;SDS011;28584;42.636;23.294;2023-12-04T08:05:18;10.73;;;6.00;;
42944;SDS011;28584;42.636;23.294;2023-12-04T08:07:43;12.10;;;7.13;;
42944;SDS011;28584;42.636;23.294;2023-12-04T08:10:09;10.00;;;6.00;;
42944;SDS011;28584;42.636;23.294;2023-12-04T08:12:35;6.47;;;4.67;;
42944;SDS011;28584;42.636;23.294;2023-12-04T08:15:00;5.13;;;4.37;;
42944;SDS011;28584;42.636;23.294;2023-12-04T08:17:26;9.53;;;5.57;;
42944;SDS011;28584;42.636;23.294;2023-12-04T08:19:52;7.50;;;5.23;;
42944;SDS011;28584;42.636;23.294;2023-12-04T08:22:17;7.37;;;5.50;;
42944;SDS011;28584;42.636;23.294;2023-12-04T08:24:42;9.20;;;5.90;;
42944;SDS011;28584;42.636;23.294;2023-12-04T08:27:07;7.73;;;5.70;;
42944;SDS011;28584;42.636;23.294;2023-12-04T08:29:33;9.87;;;6.40;;
42944;SDS011;28584;42.636;23.294;2023-12-04T08:31:58;7.40;;;5.53;;
42944;SDS011;28584;42.636;23.294;2023-12-04T08:34:23;6.83;;;5.13;;
42944;SDS011;28584;42.636;23.294;2023-12-04T08:36:48;7.47;;;4.87;;
42944;SDS011;28584;42.636;23.294;2023-12-04T08:39:14;7.20;;;5.53;;
42944;SDS011;28584;42.636;23.294;2023-12-04T08:41:39;7.13;;;5.17;;
42944;SDS011;28584;42.636;23.294;2023-12-04T08:44:04;7.57;;;5.30;;
42944;SDS011;28584;42.636;23.294;2023-12-04T08:46:29;7.20;;;5.23;;
42944;SDS011;28584;42.636;23.294;2023-12-04T08:48:55;8.00;;;5.47;;
42944;SDS011;28584;42.636;23.294;2023-12-04T08:51:20;7.53;;;5.10;;
42944;SDS011;28584;42.636;23.294;2023-12-04T08:53:45;11.63;;;5.03;;
42944;SDS011;28584;42.636;23.294;2023-12-04T08:56:10;6.43;;;4.20;;
42944;SDS011;28584;42.636;23.294;2023-12-04T08:58:37;5.00;;;4.17;;
42944;SDS011;28584;42.636;23.294;2023-12-04T09:01:02;7.43;;;4.70;;
42944;SDS011;28584;42.636;23.294;2023-12-04T09:03:28;6.03;;;4.60;;
42944;SDS011;28584;42.636;23.294;2023-12-04T09:05:54;6.30;;;5.13;;
42944;SDS011;28584;42.636;23.294;2023-12-04T09:08:21;5.53;;;4.27;;
42944;SDS011;28584;42.636;23.294;2023-12-04T09:10:46;7.83;;;5.10;;
42944;SDS011;28584;42.636;23.294;2023-12-04T09:13:12;6.83;;;5.20;;
42944;SDS011;28584;42.636;23.294;2023-12-04T09:15:38;7.07;;;5.00;;
42944;SDS011;28584;42.636;23.294;2023-12-04T09:18:03;7.30;;;4.77;;
42944;SDS011;28584;42.636;23.294;2023-12-04T09:20:28;5.83;;;4.70;;
42944;SDS011;28584;42.636;23.294;2023-12-04T09:22:54;8.00;;;5.20;;
42944;SDS011;28584;42.636;23.294;2023-12-04T09:25:19;7.70;;;4.73;;
42944;SDS011;28584;42.636;23.294;2023-12-04T09:27:44;6.97;;;4.83;;
42944;SDS011;28584;42.636;23.294;2023-12-04T09:30:10;6.03;;;4.63;;
42944;SDS011;28584;42.636;23.294;2023-12-04T09:32:35;6.93;;;4.77;;
42944;SDS011;28584;42.636;23.294;2023-12-04T09:35:00;7.50;;;5.43;;
42944;SDS011;28584;42.636;23.294;2023-12-04T09:37:26;6.67;;;5.07;;
42944;SDS011;28584;42.636;23.294;2023-12-04T09:39:51;7.50;;;4.67;;
42944;SDS011;28584;42.636;23.294;2023-12-04T09:42:16;7.57;;;5.30;;
42944;SDS011;28584;42.636;23.294;2023-12-04T09:44:43;6.93;;;5.23;;
42944;SDS011;28584;42.636;23.294;2023-12-04T09:47:08;7.20;;;4.63;;
42944;SDS011;28584;42.636;23.294;2023-12-04T09:49:35;6.60;;;4.80;;
42944;SDS011;28584;42.636;23.294;2023-12-04T09:52:00;8.93;;;5.37;;
42944;SDS011;28584;42.636;23.294;2023-12-04T09:54:26;5.23;;;4.60;;
42944;SDS011;28584;42.636;23.294;2023-12-04T09:56:51;8.50;;;5.17;;
42944;SDS011;28584;42.636;23.294;2023-12-04T09:59:17;4.83;;;4.13;;
42944;SDS011;28584;42.636;23.294;2023-12-04T10:01:42;9.37;;;4.87;;
42944;SDS011;28584;42.636;23.294;2023-12-04T10:04:08;7.97;;;5.47;;
42944;SDS011;28584;42.636;23.294;2023-12-04T10:06:34;7.70;;;5.40;;
42944;SDS011;28584;42.636;23.294;2023-12-04T10:09:01;10.60;;;5.30;;
42944;SDS011;28584;42.636;23.294;2023-12-04T10:11:28;10.70;;;5.43;;
42944;SDS011;28584;42.636;23.294;2023-12-04T10:13:54;6.83;;;5.40;;
42944;SDS011;28584;42.636;23.294;2023-12-04T10:16:53;7.43;;;5.57;;
42944;SDS011;28584;42.636;23.294;2023-12-04T10:19:27;6.63;;;4.77;;
42944;SDS011;28584;42.636;23.294;2023-12-04T10:21:53;10.17;;;5.73;;
42944;SDS011;28584;42.636;23.294;2023-12-04T10:24:28;8.40;;;6.33;;
42944;SDS011;28584;42.636;23.294;2023-12-04T10:26:55;9.23;;;6.37;;
42944;SDS011;28584;42.636;23.294;2023-12-04T10:29:21;8.47;;;6.10;;
42944;SDS011;28584;42.636;23.294;2023-12-04T10:31:47;9.07;;;6.47;;
42944;SDS011;28584;42.636;23.294;2023-12-04T10:34:15;7.77;;;5.77;;
42944;SDS011;28584;42.636;23.294;2023-12-04T10:36:40;6.60;;;5.33;;
42944;SDS011;28584;42.636;23.294;2023-12-04T10:39:05;9.67;;;5.87;;
42944;SDS011;28584;42.636;23.294;2023-12-04T10:41:31;8.40;;;6.27;;
42944;SDS011;28584;42.636;23.294;2023-12-04T10:43:56;8.23;;;5.73;;
42944;SDS011;28584;42.636;23.294;2023-12-04T10:46:23;7.40;;;6.07;;
42944;SDS011;28584;42.636;23.294;2023-12-04T10:48:49;9.37;;;5.93;;
42944;SDS011;28584;42.636;23.294;2023-12-04T10:51:15;10.00;;;6.53;;
42944;SDS011;28584;42.636;23.294;2023-12-04T10:53:42;8.67;;;5.60;;
42944;SDS011;28584;42.636;23.294;2023-12-04T10:56:09;7.83;;;5.70;;
42944;SDS011;28584;42.636;23.294;2023-12-04T10:58:35;8.37;;;5.80;;
42944;SDS011;28584;42.636;23.294;2023-12-04T11:01:01;8.50;;;6.30;;
42944;SDS011;28584;42.636;23.294;2023-12-04T11:03:34;8.80;;;5.93;;
42944;SDS011;28584;42.636;23.294;2023-12-04T11:06:01;10.50;;;6.33;;
42944;SDS011;28584;42.636;23.294;2023-12-04T11:08:32;9.40;;;6.30;;
42944;SDS011;28584;42.636;23.294;2023-12-04T11:11:05;7.20;;;5.80;;
42944;SDS011;28584;42.636;23.294;2023-12-04T11:13:34;9.87;;;6.07;;
42944;SDS011;28584;42.636;23.294;2023-12-04T11:16:01;9.93;;;6.53;;
42944;SDS011;28584;42.636;23.294;2023-12-04T11:18:27;10.57;;;6.67;;
42944;SDS011;28584;42.636;23.294;2023-12-04T11:20:56;10.73;;;6.50;;
42944;SDS011;28584;42.636;23.294;2023-12-04T11:23:23;7.70;;;6.03;;
42944;SDS011;28584;42.636;23.294;2023-12-04T11:25:48;9.83;;;6.67;;
42944;SDS011;28584;42.636;23.294;2023-12-04T11:28:15;9.10;;;6.40;;
42944;SDS011;28584;42.636;23.294;2023-12-04T11:30:41;7.27;;;6.07;;
42944;SDS011;28584;42.636;23.294;2023-12-04T11:33:06;9.07;;;6.63;;
42944;SDS011;28584;42.636;23.294;2023-12-04T11:35:33;9.57;;;6.43;;
42944;SDS011;28584;42.636;23.294;2023-12-04T11:37:58;9.10;;;6.20;;
42944;SDS011;28584;42.636;23.294;2023-12-04T11:40:23;10.07;;;6.00;;
42944;SDS011;28584;42.636;23.294;2023-12-04T11:42:49;8.27;;;6.30;;
42944;SDS011;28584;42.636;23.294;2023-12-04T11:45:18;8.90;;;6.30;;
42944;SDS011;28584;42.636;23.294;2023-12-04T11:47:56;8.03;;;6.33;;
42944;SDS011;28584;42.636;23.294;2023-12-04T11:50:25;9.07;;;6.30;;
42944;SDS011;28584;42.636;23.294;2023-12-04T11:52:51;9.27;;;6.73;;
42944;SDS011;28584;42.636;23.294;2023-12-04T11:55:17;8.07;;;6.43;;
42944;SDS011;28584;42.636;23.294;2023-12-04T11:57:42;10.33;;;6.50;;
42944;SDS011;28584;42.636;23.294;2023-12-04T12:00:11;9.30;;;6.97;;
42944;SDS011;28584;42.636;23.294;2023-12-04T12:02:40;10.77;;;6.53;;
42944;SDS011;28584;42.636;23.294;2023-12-04T12:05:05;10.93;;;7.13;;
42944;SDS011;28584;42.636;23.294;2023-12-04T12:07:32;9.10;;;6.33;;
42944;SDS011;28584;42.636;23.294;2023-12-04T12:09:58;10.37;;;7.63;;
42944;SDS011;28584;42.636;23.294;2023-12-04T12:12:23;14.77;;;8.53;;
42944;SDS011;28584;42.636;23.294;2023-12-04T12:14:50;9.50;;;7.00;;
42944;SDS011;28584;42.636;23.294;2023-12-04T12:17:15;9.73;;;7.30;;
42944;SDS011;28584;42.636;23.294;2023-12-04T12:19:40;14.17;;;8.37;;
42944;SDS011;28584;42.636;23.294;2023-12-04T12:22:05;11.60;;;7.23;;
42944;SDS011;28584;42.636;23.294;2023-12-04T12:24:30;10.40;;;7.47;;
42944;SDS011;28584;42.636;23.294;2023-12-04T12:26:56;11.53;;;6.87;;
42944;SDS011;28584;42.636;23.294;2023-12-04T12:29:21;11.27;;;7.57;;
42944;SDS011;28584;42.636;23.294;2023-12-04T12:31:46;10.93;;;8.00;;
42944;SDS011;28584;42.636;23.294;2023-12-04T12:34:11;10.80;;;8.37;;
42944;SDS011;28584;42.636;23.294;2023-12-04T12:36:37;13.00;;;8.17;;
42944;SDS011;28584;42.636;23.294;2023-12-04T12:39:02;11.80;;;7.87;;
42944;SDS011;28584;42.636;23.294;2023-12-04T12:41:29;13.77;;;8.70;;
42944;SDS011;28584;42.636;23.294;2023-12-04T12:43:54;11.97;;;8.63;;
42944;SDS011;28584;42.636;23.294;2023-12-04T12:46:20;13.20;;;9.53;;
42944;SDS011;28584;42.636;23.294;2023-12-04T12:48:47;13.23;;;9.13;;
42944;SDS011;28584;42.636;23.294;2023-12-04T12:51:12;11.53;;;8.53;;
42944;SDS011;28584;42.636;23.294;2023-12-04T12:53:37;12.70;;;8.47;;
42944;SDS011;28584;42.636;23.294;2023-12-04T12:56:03;12.57;;;8.53;;
42944;SDS011;28584;42.636;23.294;2023-12-04T12:58:28;11.80;;;8.10;;
42944;SDS011;28584;42.636;23.294;2023-12-04T13:00:54;9.47;;;6.57;;
42944;SDS011;28584;42.636;23.294;2023-12-04T13:03:19;10.77;;;7.60;;
42944;SDS011;28584;42.636;23.294;2023-12-04T13:05:45;10.53;;;7.33;;
42944;SDS011;28584;42.636;23.294;2023-12-04T13:08:11;12.77;;;8.13;;
42944;SDS011;28584;42.636;23.294;2023-12-04T13:10:42;13.20;;;9.67;;
42944;SDS011;28584;42.636;23.294;2023-12-04T13:13:11;16.07;;;10.07;;
42944;SDS011;28584;42.636;23.294;2023-12-04T13:15:36;17.50;;;10.70;;
42944;SDS011;28584;42.636;23.294;2023-12-04T13:18:02;13.57;;;9.37;;
42944;SDS011;28584;42.636;23.294;2023-12-04T13:20:27;11.77;;;8.90;;
42944;SDS011;28584;42.636;23.294;2023-12-04T13:22:52;12.83;;;8.70;;
42944;SDS011;28584;42.636;23.294;2023-12-04T13:25:17;10.57;;;8.03;;
42944;SDS011;28584;42.636;23.294;2023-12-04T13:27:43;11.07;;;8.07;;
42944;SDS011;28584;42.636;23.294;2023-12-04T13:30:08;11.83;;;7.90;;
42944;SDS011;28584;42.636;23.294;2023-12-04T13:32:35;9.63;;;7.70;;
42944;SDS011;28584;42.636;23.294;2023-12-04T13:35:01;12.00;;;8.33;;
42944;SDS011;28584;42.636;23.294;2023-12-04T13:37:26;11.60;;;8.23;;
42944;SDS011;28584;42.636;23.294;2023-12-04T13:39:53;10.23;;;7.33;;
42944;SDS011;28584;42.636;23.294;2023-12-04T13:42:23;11.77;;;7.93;;
42944;SDS011;28584;42.636;23.294;2023-12-04T13:45:07;9.87;;;7.87;;
42944;SDS011;28584;42.636;23.294;2023-12-04T13:47:34;11.33;;;7.97;;
42944;SDS011;28584;42.636;23.294;2023-12-04T13:50:00;14.43;;;8.77;;
42944;SDS011;28584;42.636;23.294;2023-12-04T13:52:25;13.73;;;9.27;;
42944;SDS011;28584;42.636;23.294;2023-12-04T13:54:53;15.10;;;9.20;;
42944;SDS011;28584;42.636;23.294;2023-12-04T13:57:19;14.27;;;9.33;;
42944;SDS011;28584;42.636;23.294;2023-12-04T14:00:01;12.47;;;8.93;;
42944;SDS011;28584;42.636;23.294;2023-12-04T14:02:26;12.90;;;8.73;;
42944;SDS011;28584;42.636;23.294;2023-12-04T14:04:52;13.07;;;9.43;;
42944;SDS011;28584;42.636;23.294;2023-12-04T14:07:17;14.23;;;10.10;;
42944;SDS011;28584;42.636;23.294;2023-12-04T14:09:43;13.37;;;9.37;;
42944;SDS011;28584;42.636;23.294;2023-12-04T14:12:09;12.13;;;9.27;;
42944;SDS011;28584;42.636;23.294;2023-12-04T14:14:35;16.50;;;10.13;;
42944;SDS011;28584;42.636;23.294;2023-12-04T14:17:02;17.00;;;9.70;;
42944;SDS011;28584;42.636;23.294;2023-12-04T14:19:29;19.00;;;10.57;;
42944;SDS011;28584;42.636;23.294;2023-12-04T14:21:54;17.37;;;10.67;;